sensor_id;sensor_type;location;lat;lon;timestamp;P1;durP1;ratioP1;P2;durP2;ratioP2
1935;SDS011;969;49.892;10.896;2023-08-08T00:01:54;4.47;;;3.60;;
1935;SDS011;969;49.892;10.896;2023-08-08T00:04:19;4.77;;;3.43;;
1935;SDS011;969;49.892;10.896;2023-08-08T00:06:45;4.27;;;3.87;;
1935;SDS011;969;49.892;10.896;2023-08-08T00:09:10;6.07;;;3.90;;
1935;SDS011;969;49.892;10.896;2023-08-08T00:11:36;3.73;;;3.40;;
1935;SDS011;969;49.892;10.896;2023-08-08T00:14:01;3.03;;;2.73;;
1935;SDS011;969;49.892;10.896;2023-08-08T00:16:27;4.17;;;3.60;;
1935;SDS011;969;49.892;10.896;2023-08-08T00:18:53;4.07;;;3.67;;
1935;SDS011;969;49.892;10.896;2023-08-08T00:21:19;3.60;;;3.23;;
1935;SDS011;969;49.892;10.896;2023-08-08T00:23:45;4.37;;;3.97;;
1935;SDS011;969;49.892;10.896;2023-08-08T00:26:11;3.90;;;3.50;;
1935;SDS011;969;49.892;10.896;2023-08-08T00:28:37;4.47;;;3.40;;
1935;SDS011;969;49.892;10.896;2023-08-08T00:31:02;4.20;;;3.43;;
1935;SDS011;969;49.892;10.896;2023-08-08T00:33:28;3.70;;;3.40;;
1935;SDS011;969;49.892;10.896;2023-08-08T00:35:54;4.63;;;3.60;;
1935;SDS011;969;49.892;10.896;2023-08-08T00:38:19;3.50;;;3.20;;
1935;SDS011;969;49.892;10.896;2023-08-08T00:40:45;3.83;;;3.10;;
1935;SDS011;969;49.892;10.896;2023-08-08T00:43:10;3.73;;;3.37;;
1935;SDS011;969;49.892;10.896;2023-08-08T00:45:36;4.60;;;3.40;;
1935;SDS011;969;49.892;10.896;2023-08-08T00:48:02;3.80;;;3.30;;
1935;SDS011;969;49.892;10.896;2023-08-08T00:50:29;4.43;;;3.53;;
1935;SDS011;969;49.892;10.896;2023-08-08T00:52:55;3.10;;;2.80;;
1935;SDS011;969;49.892;10.896;2023-08-08T00:55:21;3.67;;;3.33;;
1935;SDS011;969;49.892;10.896;2023-08-08T00:57:46;3.50;;;3.20;;
1935;SDS011;969;49.892;10.896;2023-08-08T01:00:12;4.10;;;3.70;;
1935;SDS011;969;49.892;10.896;2023-08-08T01:02:38;4.40;;;3.10;;
1935;SDS011;969;49.892;10.896;2023-08-08T01:05:04;3.90;;;3.57;;
1935;SDS011;969;49.892;10.896;2023-08-08T01:10:35;3.63;;;3.33;;
1935;SDS011;969;49.892;10.896;2023-08-08T01:13:08;3.80;;;3.07;;
1935;SDS011;969;49.892;10.896;2023-08-08T01:15:38;3.87;;;3.57;;
1935;SDS011;969;49.892;10.896;2023-08-08T01:18:05;3.07;;;2.77;;
1935;SDS011;969;49.892;10.896;2023-08-08T01:20:32;3.30;;;3.00;;
1935;SDS011;969;49.892;10.896;2023-08-08T01:23:03;3.43;;;3.13;;
1935;SDS011;969;49.892;10.896;2023-08-08T01:25:55;3.10;;;2.80;;
1935;SDS011;969;49.892;10.896;2023-08-08T01:28:23;3.13;;;2.77;;
1935;SDS011;969;49.892;10.896;2023-08-08T01:30:49;3.50;;;3.20;;
1935;SDS011;969;49.892;10.896;2023-08-08T01:33:15;3.70;;;3.30;;
1935;SDS011;969;49.892;10.896;2023-08-08T01:35:43;3.20;;;2.90;;
1935;SDS011;969;49.892;10.896;2023-08-08T01:38:14;3.40;;;3.10;;
1935;SDS011;969;49.892;10.896;2023-08-08T01:40:45;3.10;;;2.80;;
1935;SDS011;969;49.892;10.896;2023-08-08T01:43:11;2.87;;;2.67;;
1935;SDS011;969;49.892;10.896;2023-08-08T01:45:39;4.17;;;3.13;;
1935;SDS011;969;49.892;10.896;2023-08-08T01:48:08;3.47;;;3.10;;
1935;SDS011;969;49.892;10.896;2023-08-08T01:50:35;3.63;;;3.13;;
1935;SDS011;969;49.892;10.896;2023-08-08T01:53:01;3.40;;;3.10;;
1935;SDS011;969;49.892;10.896;2023-08-08T01:55:27;3.70;;;3.17;;
1935;SDS011;969;49.892;10.896;2023-08-08T01:57:53;3.10;;;2.80;;
1935;SDS011;969;49.892;10.896;2023-08-08T02:00:18;3.20;;;2.90;;
1935;SDS011;969;49.892;10.896;2023-08-08T02:02:44;3.00;;;2.73;;
1935;SDS011;969;49.892;10.896;2023-08-08T02:05:10;3.97;;;3.17;;
1935;SDS011;969;49.892;10.896;2023-08-08T02:07:35;3.57;;;2.90;;
1935;SDS011;969;49.892;10.896;2023-08-08T02:10:01;3.73;;;3.43;;
1935;SDS011;969;49.892;10.896;2023-08-08T02:12:27;3.67;;;2.83;;
1935;SDS011;969;49.892;10.896;2023-08-08T02:14:54;3.07;;;2.67;;
1935;SDS011;969;49.892;10.896;2023-08-08T02:17:21;3.60;;;3.00;;
1935;SDS011;969;49.892;10.896;2023-08-08T02:19:46;3.43;;;2.50;;
1935;SDS011;969;49.892;10.896;2023-08-08T02:22:12;3.40;;;2.80;;
1935;SDS011;969;49.892;10.896;2023-08-08T02:24:37;4.17;;;2.97;;
1935;SDS011;969;49.892;10.896;2023-08-08T02:27:03;3.90;;;2.77;;
1935;SDS011;969;49.892;10.896;2023-08-08T02:29:29;3.70;;;3.30;;
1935;SDS011;969;49.892;10.896;2023-08-08T02:31:55;3.33;;;2.70;;
1935;SDS011;969;49.892;10.896;2023-08-08T02:34:20;2.80;;;2.40;;
1935;SDS011;969;49.892;10.896;2023-08-08T02:36:46;3.50;;;2.67;;
1935;SDS011;969;49.892;10.896;2023-08-08T02:39:11;3.43;;;3.13;;
1935;SDS011;969;49.892;10.896;2023-08-08T02:41:37;2.30;;;2.10;;
1935;SDS011;969;49.892;10.896;2023-08-08T02:44:03;3.07;;;2.67;;
1935;SDS011;969;49.892;10.896;2023-08-08T02:46:28;3.13;;;2.70;;
1935;SDS011;969;49.892;10.896;2023-08-08T02:48:54;3.10;;;2.80;;
1935;SDS011;969;49.892;10.896;2023-08-08T02:51:19;2.93;;;2.57;;
1935;SDS011;969;49.892;10.896;2023-08-08T02:53:45;2.90;;;2.60;;
1935;SDS011;969;49.892;10.896;2023-08-08T02:56:10;3.33;;;2.13;;
1935;SDS011;969;49.892;10.896;2023-08-08T02:58:36;3.37;;;2.20;;
1935;SDS011;969;49.892;10.896;2023-08-08T03:01:01;3.03;;;2.50;;
1935;SDS011;969;49.892;10.896;2023-08-08T03:03:27;3.23;;;2.70;;
1935;SDS011;969;49.892;10.896;2023-08-08T03:05:53;4.40;;;2.67;;
1935;SDS011;969;49.892;10.896;2023-08-08T03:08:19;3.03;;;2.73;;
1935;SDS011;969;49.892;10.896;2023-08-08T03:10:44;2.60;;;2.30;;
1935;SDS011;969;49.892;10.896;2023-08-08T03:13:10;2.73;;;2.43;;
1935;SDS011;969;49.892;10.896;2023-08-08T03:15:35;3.00;;;2.50;;
1935;SDS011;969;49.892;10.896;2023-08-08T03:18:01;3.00;;;2.70;;
1935;SDS011;969;49.892;10.896;2023-08-08T03:20:28;2.50;;;2.17;;
1935;SDS011;969;49.892;10.896;2023-08-08T03:22:54;3.50;;;3.20;;
1935;SDS011;969;49.892;10.896;2023-08-08T03:25:19;2.87;;;2.50;;
1935;SDS011;969;49.892;10.896;2023-08-08T03:27:45;3.10;;;2.80;;
1935;SDS011;969;49.892;10.896;2023-08-08T03:30:11;3.30;;;2.50;;
1935;SDS011;969;49.892;10.896;2023-08-08T03:32:37;3.13;;;2.83;;
1935;SDS011;969;49.892;10.896;2023-08-08T03:35:03;2.20;;;2.00;;
1935;SDS011;969;49.892;10.896;2023-08-08T03:37:29;2.70;;;2.50;;
1935;SDS011;969;49.892;10.896;2023-08-08T03:39:55;3.80;;;3.07;;
1935;SDS011;969;49.892;10.896;2023-08-08T03:42:20;2.40;;;2.20;;
1935;SDS011;969;49.892;10.896;2023-08-08T03:44:46;2.40;;;2.20;;
1935;SDS011;969;49.892;10.896;2023-08-08T03:47:12;3.00;;;2.60;;
1935;SDS011;969;49.892;10.896;2023-08-08T03:49:37;2.70;;;2.50;;
1935;SDS011;969;49.892;10.896;2023-08-08T03:52:03;3.13;;;2.13;;
1935;SDS011;969;49.892;10.896;2023-08-08T03:54:29;2.30;;;2.10;;
1935;SDS011;969;49.892;10.896;2023-08-08T03:56:55;2.90;;;2.60;;
1935;SDS011;969;49.892;10.896;2023-08-08T03:59:20;2.90;;;2.70;;
1935;SDS011;969;49.892;10.896;2023-08-08T04:01:46;2.87;;;2.47;;
1935;SDS011;969;49.892;10.896;2023-08-08T04:04:12;2.87;;;2.40;;
1935;SDS011;969;49.892;10.896;2023-08-08T04:06:37;2.40;;;2.20;;
1935;SDS011;969;49.892;10.896;2023-08-08T04:09:03;2.30;;;2.10;;
1935;SDS011;969;49.892;10.896;2023-08-08T04:11:29;2.43;;;2.23;;
1935;SDS011;969;49.892;10.896;2023-08-08T04:13:54;2.30;;;1.93;;
1935;SDS011;969;49.892;10.896;2023-08-08T04:16:20;2.80;;;2.50;;
1935;SDS011;969;49.892;10.896;2023-08-08T04:18:45;2.70;;;2.50;;
1935;SDS011;969;49.892;10.896;2023-08-08T04:21:11;2.50;;;2.30;;
1935;SDS011;969;49.892;10.896;2023-08-08T04:23:36;2.67;;;2.40;;
1935;SDS011;969;49.892;10.896;2023-08-08T04:26:02;2.80;;;2.60;;
1935;SDS011;969;49.892;10.896;2023-08-08T04:28:28;2.50;;;2.27;;
1935;SDS011;969;49.892;10.896;2023-08-08T04:30:53;3.60;;;2.43;;
1935;SDS011;969;49.892;10.896;2023-08-08T04:33:19;2.50;;;2.30;;
1935;SDS011;969;49.892;10.896;2023-08-08T04:35:44;2.70;;;2.30;;
1935;SDS011;969;49.892;10.896;2023-08-08T04:38:10;2.20;;;1.93;;
1935;SDS011;969;49.892;10.896;2023-08-08T04:40:38;2.67;;;2.47;;
1935;SDS011;969;49.892;10.896;2023-08-08T04:43:04;2.70;;;2.10;;
1935;SDS011;969;49.892;10.896;2023-08-08T04:45:29;2.60;;;2.33;;
1935;SDS011;969;49.892;10.896;2023-08-08T04:47:55;2.77;;;2.20;;
1935;SDS011;969;49.892;10.896;2023-08-08T04:50:20;2.60;;;2.40;;
1935;SDS011;969;49.892;10.896;2023-08-08T04:52:46;2.27;;;2.07;;
1935;SDS011;969;49.892;10.896;2023-08-08T04:55:12;2.37;;;2.17;;
1935;SDS011;969;49.892;10.896;2023-08-08T04:57:37;2.40;;;2.20;;
1935;SDS011;969;49.892;10.896;2023-08-08T05:00:03;2.27;;;2.07;;
1935;SDS011;969;49.892;10.896;2023-08-08T05:02:33;2.50;;;2.30;;
1935;SDS011;969;49.892;10.896;2023-08-08T05:04:58;2.90;;;2.60;;
1935;SDS011;969;49.892;10.896;2023-08-08T05:07:25;2.43;;;2.23;;
1935;SDS011;969;49.892;10.896;2023-08-08T05:09:51;2.60;;;2.40;;
1935;SDS011;969;49.892;10.896;2023-08-08T05:12:17;2.50;;;2.30;;
1935;SDS011;969;49.892;10.896;2023-08-08T05:14:42;3.13;;;2.47;;
1935;SDS011;969;49.892;10.896;2023-08-08T05:17:08;2.17;;;1.97;;
1935;SDS011;969;49.892;10.896;2023-08-08T05:19:33;2.10;;;1.90;;
1935;SDS011;969;49.892;10.896;2023-08-08T05:21:59;2.00;;;1.90;;
1935;SDS011;969;49.892;10.896;2023-08-08T05:24:25;2.50;;;2.30;;
1935;SDS011;969;49.892;10.896;2023-08-08T05:26:51;2.33;;;2.13;;
1935;SDS011;969;49.892;10.896;2023-08-08T05:29:18;2.07;;;1.87;;
1935;SDS011;969;49.892;10.896;2023-08-08T05:31:44;2.63;;;2.43;;
1935;SDS011;969;49.892;10.896;2023-08-08T05:34:09;2.30;;;2.10;;
1935;SDS011;969;49.892;10.896;2023-08-08T05:36:35;2.67;;;2.03;;
1935;SDS011;969;49.892;10.896;2023-08-08T05:39:01;2.63;;;2.43;;
1935;SDS011;969;49.892;10.896;2023-08-08T05:41:31;2.80;;;2.60;;
1935;SDS011;969;49.892;10.896;2023-08-08T05:43:57;3.70;;;2.40;;
1935;SDS011;969;49.892;10.896;2023-08-08T05:46:23;2.20;;;1.90;;
1935;SDS011;969;49.892;10.896;2023-08-08T05:48:51;2.20;;;1.90;;
1935;SDS011;969;49.892;10.896;2023-08-08T05:51:17;3.57;;;1.90;;
1935;SDS011;969;49.892;10.896;2023-08-08T05:53:42;2.33;;;2.13;;
1935;SDS011;969;49.892;10.896;2023-08-08T05:56:08;1.90;;;1.70;;
1935;SDS011;969;49.892;10.896;2023-08-08T05:58:34;2.20;;;1.70;;
1935;SDS011;969;49.892;10.896;2023-08-08T06:01:02;2.90;;;2.50;;
1935;SDS011;969;49.892;10.896;2023-08-08T06:03:31;2.40;;;2.20;;
1935;SDS011;969;49.892;10.896;2023-08-08T06:05:57;2.10;;;1.83;;
1935;SDS011;969;49.892;10.896;2023-08-08T06:08:22;2.80;;;2.50;;
1935;SDS011;969;49.892;10.896;2023-08-08T06:10:48;2.30;;;1.90;;
1935;SDS011;969;49.892;10.896;2023-08-08T06:13:14;2.60;;;1.87;;
1935;SDS011;969;49.892;10.896;2023-08-08T06:15:39;2.73;;;2.23;;
1935;SDS011;969;49.892;10.896;2023-08-08T06:18:05;2.10;;;1.90;;
1935;SDS011;969;49.892;10.896;2023-08-08T06:20:31;1.90;;;1.50;;
1935;SDS011;969;49.892;10.896;2023-08-08T06:22:56;2.40;;;1.90;;
1935;SDS011;969;49.892;10.896;2023-08-08T06:25:22;2.20;;;2.00;;
1935;SDS011;969;49.892;10.896;2023-08-08T06:27:48;2.60;;;2.30;;
1935;SDS011;969;49.892;10.896;2023-08-08T06:30:14;2.03;;;1.83;;
1935;SDS011;969;49.892;10.896;2023-08-08T06:32:40;2.10;;;1.90;;
1935;SDS011;969;49.892;10.896;2023-08-08T06:35:05;2.37;;;2.00;;
1935;SDS011;969;49.892;10.896;2023-08-08T06:37:31;2.20;;;1.90;;
1935;SDS011;969;49.892;10.896;2023-08-08T06:39:57;1.97;;;1.83;;
1935;SDS011;969;49.892;10.896;2023-08-08T06:42:23;2.13;;;1.93;;
1935;SDS011;969;49.892;10.896;2023-08-08T06:44:49;1.80;;;1.70;;
1935;SDS011;969;49.892;10.896;2023-08-08T06:47:14;2.17;;;1.97;;
1935;SDS011;969;49.892;10.896;2023-08-08T06:49:40;2.50;;;1.80;;
1935;SDS011;969;49.892;10.896;2023-08-08T06:52:05;2.20;;;1.87;;
1935;SDS011;969;49.892;10.896;2023-08-08T06:54:31;1.87;;;1.77;;
1935;SDS011;969;49.892;10.896;2023-08-08T06:56:57;2.30;;;1.90;;
1935;SDS011;969;49.892;10.896;2023-08-08T06:59:23;2.20;;;1.73;;
1935;SDS011;969;49.892;10.896;2023-08-08T07:01:49;2.80;;;2.00;;
1935;SDS011;969;49.892;10.896;2023-08-08T07:04:15;2.00;;;1.80;;
1935;SDS011;969;49.892;10.896;2023-08-08T07:06:42;1.87;;;1.67;;
1935;SDS011;969;49.892;10.896;2023-08-08T07:09:09;4.00;;;2.17;;
1935;SDS011;969;49.892;10.896;2023-08-08T07:11:35;4.60;;;2.70;;
1935;SDS011;969;49.892;10.896;2023-08-08T07:14:02;5.20;;;2.40;;
1935;SDS011;969;49.892;10.896;2023-08-08T07:16:27;3.17;;;2.33;;
1935;SDS011;969;49.892;10.896;2023-08-08T07:18:53;4.77;;;1.90;;
1935;SDS011;969;49.892;10.896;2023-08-08T07:21:19;5.70;;;2.37;;
1935;SDS011;969;49.892;10.896;2023-08-08T07:23:45;4.17;;;1.97;;
1935;SDS011;969;49.892;10.896;2023-08-08T07:26:11;2.23;;;1.83;;
1935;SDS011;969;49.892;10.896;2023-08-08T07:28:36;5.77;;;2.20;;
1935;SDS011;969;49.892;10.896;2023-08-08T07:31:02;6.20;;;2.90;;
1935;SDS011;969;49.892;10.896;2023-08-08T07:33:28;3.27;;;2.37;;
1935;SDS011;969;49.892;10.896;2023-08-08T07:35:54;4.60;;;2.23;;
1935;SDS011;969;49.892;10.896;2023-08-08T07:38:19;5.00;;;2.10;;
1935;SDS011;969;49.892;10.896;2023-08-08T07:40:45;5.23;;;2.60;;
1935;SDS011;969;49.892;10.896;2023-08-08T07:43:11;4.30;;;2.33;;
1935;SDS011;969;49.892;10.896;2023-08-08T07:45:37;4.77;;;2.20;;
1935;SDS011;969;49.892;10.896;2023-08-08T07:48:03;4.13;;;2.10;;
1935;SDS011;969;49.892;10.896;2023-08-08T07:50:29;3.93;;;2.37;;
1935;SDS011;969;49.892;10.896;2023-08-08T07:52:54;3.07;;;2.10;;
1935;SDS011;969;49.892;10.896;2023-08-08T07:55:20;4.67;;;2.17;;
1935;SDS011;969;49.892;10.896;2023-08-08T07:57:46;3.27;;;2.37;;
1935;SDS011;969;49.892;10.896;2023-08-08T08:00:11;2.97;;;2.23;;
1935;SDS011;969;49.892;10.896;2023-08-08T08:02:41;4.17;;;2.70;;
1935;SDS011;969;49.892;10.896;2023-08-08T08:05:08;3.83;;;1.80;;
1935;SDS011;969;49.892;10.896;2023-08-08T08:07:34;3.53;;;1.93;;
1935;SDS011;969;49.892;10.896;2023-08-08T08:10:01;2.47;;;2.23;;
1935;SDS011;969;49.892;10.896;2023-08-08T08:12:27;2.37;;;1.70;;
1935;SDS011;969;49.892;10.896;2023-08-08T08:14:54;4.37;;;1.97;;
1935;SDS011;969;49.892;10.896;2023-08-08T08:17:20;8.27;;;2.10;;
1935;SDS011;969;49.892;10.896;2023-08-08T08:19:45;3.07;;;2.00;;
1935;SDS011;969;49.892;10.896;2023-08-08T08:22:11;2.63;;;1.63;;
1935;SDS011;969;49.892;10.896;2023-08-08T08:24:36;2.37;;;1.80;;
1935;SDS011;969;49.892;10.896;2023-08-08T08:27:02;3.57;;;1.80;;
1935;SDS011;969;49.892;10.896;2023-08-08T08:29:27;3.03;;;2.13;;
1935;SDS011;969;49.892;10.896;2023-08-08T08:31:53;3.30;;;1.63;;
1935;SDS011;969;49.892;10.896;2023-08-08T08:34:19;3.27;;;1.90;;
1935;SDS011;969;49.892;10.896;2023-08-08T08:36:44;2.70;;;1.90;;
1935;SDS011;969;49.892;10.896;2023-08-08T08:39:10;4.20;;;1.70;;
1935;SDS011;969;49.892;10.896;2023-08-08T08:41:36;2.03;;;1.50;;
1935;SDS011;969;49.892;10.896;2023-08-08T08:44:03;3.37;;;1.57;;
1935;SDS011;969;49.892;10.896;2023-08-08T08:46:29;2.17;;;1.97;;
1935;SDS011;969;49.892;10.896;2023-08-08T08:48:55;2.37;;;1.70;;
1935;SDS011;969;49.892;10.896;2023-08-08T08:51:25;3.83;;;1.63;;
1935;SDS011;969;49.892;10.896;2023-08-08T08:53:51;2.30;;;2.10;;
1935;SDS011;969;49.892;10.896;2023-08-08T08:56:17;3.20;;;1.60;;
1935;SDS011;969;49.892;10.896;2023-08-08T08:58:43;3.00;;;1.73;;
1935;SDS011;969;49.892;10.896;2023-08-08T09:01:09;2.10;;;1.50;;
1935;SDS011;969;49.892;10.896;2023-08-08T09:03:37;2.63;;;1.70;;
1935;SDS011;969;49.892;10.896;2023-08-08T09:06:04;1.50;;;1.20;;
1935;SDS011;969;49.892;10.896;2023-08-08T09:08:30;2.50;;;1.87;;
1935;SDS011;969;49.892;10.896;2023-08-08T09:10:56;2.27;;;1.67;;
1935;SDS011;969;49.892;10.896;2023-08-08T09:13:22;2.43;;;1.60;;
1935;SDS011;969;49.892;10.896;2023-08-08T09:15:51;1.90;;;1.70;;
1935;SDS011;969;49.892;10.896;2023-08-08T09:18:17;6.53;;;1.73;;
1935;SDS011;969;49.892;10.896;2023-08-08T09:20:47;3.10;;;1.43;;
1935;SDS011;969;49.892;10.896;2023-08-08T09:23:14;1.93;;;1.80;;
1935;SDS011;969;49.892;10.896;2023-08-08T09:25:39;2.60;;;1.80;;
1935;SDS011;969;49.892;10.896;2023-08-08T09:28:05;3.10;;;1.80;;
1935;SDS011;969;49.892;10.896;2023-08-08T09:30:30;2.50;;;1.30;;
1935;SDS011;969;49.892;10.896;2023-08-08T09:33:02;1.63;;;1.20;;
1935;SDS011;969;49.892;10.896;2023-08-08T09:35:28;1.80;;;1.27;;
1935;SDS011;969;49.892;10.896;2023-08-08T09:37:55;3.83;;;1.90;;
1935;SDS011;969;49.892;10.896;2023-08-08T09:40:22;3.40;;;1.70;;
1935;SDS011;969;49.892;10.896;2023-08-08T09:42:50;1.83;;;1.50;;
1935;SDS011;969;49.892;10.896;2023-08-08T09:45:17;3.23;;;1.40;;
1935;SDS011;969;49.892;10.896;2023-08-08T09:47:42;1.73;;;1.50;;
1935;SDS011;969;49.892;10.896;2023-08-08T09:50:08;1.77;;;1.47;;
1935;SDS011;969;49.892;10.896;2023-08-08T09:52:34;1.87;;;1.50;;
1935;SDS011;969;49.892;10.896;2023-08-08T09:55:01;2.63;;;1.60;;
1935;SDS011;969;49.892;10.896;2023-08-08T09:57:28;2.63;;;1.30;;
1935;SDS011;969;49.892;10.896;2023-08-08T09:59:54;1.80;;;1.40;;
1935;SDS011;969;49.892;10.896;2023-08-08T10:02:20;2.63;;;1.63;;
1935;SDS011;969;49.892;10.896;2023-08-08T10:04:46;2.43;;;1.10;;
1935;SDS011;969;49.892;10.896;2023-08-08T10:07:13;2.67;;;1.70;;
1935;SDS011;969;49.892;10.896;2023-08-08T10:09:39;4.60;;;1.53;;
1935;SDS011;969;49.892;10.896;2023-08-08T10:12:05;2.50;;;1.80;;
1935;SDS011;969;49.892;10.896;2023-08-08T10:14:32;1.40;;;1.27;;
1935;SDS011;969;49.892;10.896;2023-08-08T10:17:04;2.63;;;1.50;;
1935;SDS011;969;49.892;10.896;2023-08-08T10:19:30;4.10;;;1.40;;
1935;SDS011;969;49.892;10.896;2023-08-08T10:21:59;2.13;;;1.40;;
1935;SDS011;969;49.892;10.896;2023-08-08T10:24:32;2.37;;;1.57;;
1935;SDS011;969;49.892;10.896;2023-08-08T10:27:00;2.13;;;1.40;;
1935;SDS011;969;49.892;10.896;2023-08-08T10:29:27;2.97;;;1.50;;
1935;SDS011;969;49.892;10.896;2023-08-08T10:34:44;3.07;;;1.70;;
1935;SDS011;969;49.892;10.896;2023-08-08T10:37:15;6.33;;;2.43;;
1935;SDS011;969;49.892;10.896;2023-08-08T10:39:57;1.37;;;1.20;;
1935;SDS011;969;49.892;10.896;2023-08-08T10:42:24;1.90;;;1.30;;
1935;SDS011;969;49.892;10.896;2023-08-08T10:44:52;2.30;;;1.60;;
1935;SDS011;969;49.892;10.896;2023-08-08T10:47:23;2.33;;;1.60;;
1935;SDS011;969;49.892;10.896;2023-08-08T10:49:58;2.97;;;1.73;;
1935;SDS011;969;49.892;10.896;2023-08-08T10:52:28;1.47;;;1.10;;
1935;SDS011;969;49.892;10.896;2023-08-08T10:54:54;1.57;;;1.37;;
1935;SDS011;969;49.892;10.896;2023-08-08T10:57:20;4.93;;;1.43;;
1935;SDS011;969;49.892;10.896;2023-08-08T10:59:50;3.10;;;1.30;;
1935;SDS011;969;49.892;10.896;2023-08-08T11:02:15;2.00;;;1.60;;
1935;SDS011;969;49.892;10.896;2023-08-08T11:04:41;1.80;;;1.20;;
1935;SDS011;969;49.892;10.896;2023-08-08T11:07:07;3.33;;;1.57;;
1935;SDS011;969;49.892;10.896;2023-08-08T11:09:34;2.43;;;1.60;;
1935;SDS011;969;49.892;10.896;2023-08-08T11:11:59;2.00;;;1.53;;
1935;SDS011;969;49.892;10.896;2023-08-08T11:14:25;4.03;;;1.47;;
1935;SDS011;969;49.892;10.896;2023-08-08T11:16:51;2.60;;;1.63;;
1935;SDS011;969;49.892;10.896;2023-08-08T11:19:17;1.77;;;1.50;;
1935;SDS011;969;49.892;10.896;2023-08-08T11:21:47;2.07;;;1.40;;
1935;SDS011;969;49.892;10.896;2023-08-08T11:24:14;2.63;;;1.57;;
1935;SDS011;969;49.892;10.896;2023-08-08T11:26:41;1.70;;;1.37;;
1935;SDS011;969;49.892;10.896;2023-08-08T11:29:10;2.50;;;1.40;;
1935;SDS011;969;49.892;10.896;2023-08-08T11:31:36;2.00;;;1.70;;
1935;SDS011;969;49.892;10.896;2023-08-08T11:34:03;1.80;;;1.30;;
1935;SDS011;969;49.892;10.896;2023-08-08T11:36:30;5.30;;;2.00;;
1935;SDS011;969;49.892;10.896;2023-08-08T11:38:58;2.27;;;1.50;;
1935;SDS011;969;49.892;10.896;2023-08-08T11:41:28;2.63;;;1.27;;
1935;SDS011;969;49.892;10.896;2023-08-08T11:43:54;2.57;;;1.43;;
1935;SDS011;969;49.892;10.896;2023-08-08T11:46:24;2.97;;;1.60;;
1935;SDS011;969;49.892;10.896;2023-08-08T11:48:51;2.20;;;1.40;;
1935;SDS011;969;49.892;10.896;2023-08-08T11:51:16;2.80;;;1.43;;
1935;SDS011;969;49.892;10.896;2023-08-08T11:53:49;2.90;;;1.30;;
1935;SDS011;969;49.892;10.896;2023-08-08T11:56:16;2.57;;;1.30;;
1935;SDS011;969;49.892;10.896;2023-08-08T11:58:43;1.63;;;1.40;;
1935;SDS011;969;49.892;10.896;2023-08-08T12:01:09;2.30;;;1.53;;
1935;SDS011;969;49.892;10.896;2023-08-08T12:03:36;1.67;;;1.23;;
1935;SDS011;969;49.892;10.896;2023-08-08T12:06:11;2.20;;;1.60;;
1935;SDS011;969;49.892;10.896;2023-08-08T12:08:40;2.33;;;1.40;;
1935;SDS011;969;49.892;10.896;2023-08-08T12:11:08;2.83;;;1.53;;
1935;SDS011;969;49.892;10.896;2023-08-08T12:13:34;2.33;;;1.93;;
1935;SDS011;969;49.892;10.896;2023-08-08T12:16:04;2.33;;;1.70;;
1935;SDS011;969;49.892;10.896;2023-08-08T12:18:31;1.60;;;1.50;;
1935;SDS011;969;49.892;10.896;2023-08-08T12:20:57;1.30;;;1.10;;
1935;SDS011;969;49.892;10.896;2023-08-08T12:23:23;3.00;;;1.83;;
1935;SDS011;969;49.892;10.896;2023-08-08T12:25:50;1.90;;;1.20;;
1935;SDS011;969;49.892;10.896;2023-08-08T12:28:16;2.00;;;1.40;;
1935;SDS011;969;49.892;10.896;2023-08-08T12:30:42;1.20;;;1.00;;
1935;SDS011;969;49.892;10.896;2023-08-08T12:33:07;2.47;;;1.27;;
1935;SDS011;969;49.892;10.896;2023-08-08T12:35:33;1.73;;;1.27;;
1935;SDS011;969;49.892;10.896;2023-08-08T12:37:59;1.60;;;1.40;;
1935;SDS011;969;49.892;10.896;2023-08-08T12:40:24;1.53;;;1.33;;
1935;SDS011;969;49.892;10.896;2023-08-08T12:42:50;1.90;;;1.40;;
1935;SDS011;969;49.892;10.896;2023-08-08T12:45:16;1.80;;;1.20;;
1935;SDS011;969;49.892;10.896;2023-08-08T12:47:43;2.23;;;1.30;;
1935;SDS011;969;49.892;10.896;2023-08-08T12:50:09;3.70;;;1.70;;
1935;SDS011;969;49.892;10.896;2023-08-08T12:52:35;1.60;;;1.50;;
1935;SDS011;969;49.892;10.896;2023-08-08T12:55:01;2.27;;;1.40;;
1935;SDS011;969;49.892;10.896;2023-08-08T12:57:27;1.50;;;1.27;;
1935;SDS011;969;49.892;10.896;2023-08-08T12:59:52;1.93;;;1.40;;
1935;SDS011;969;49.892;10.896;2023-08-08T13:02:18;2.27;;;1.57;;
1935;SDS011;969;49.892;10.896;2023-08-08T13:04:44;1.97;;;1.43;;
1935;SDS011;969;49.892;10.896;2023-08-08T13:07:10;3.83;;;1.23;;
1935;SDS011;969;49.892;10.896;2023-08-08T13:09:35;2.30;;;1.17;;
1935;SDS011;969;49.892;10.896;2023-08-08T13:12:01;2.13;;;1.30;;
1935;SDS011;969;49.892;10.896;2023-08-08T13:14:27;2.90;;;1.33;;
1935;SDS011;969;49.892;10.896;2023-08-08T13:16:52;1.40;;;1.20;;
1935;SDS011;969;49.892;10.896;2023-08-08T13:19:19;1.80;;;1.23;;
1935;SDS011;969;49.892;10.896;2023-08-08T13:21:46;1.77;;;1.37;;
1935;SDS011;969;49.892;10.896;2023-08-08T13:24:12;3.43;;;1.33;;
1935;SDS011;969;49.892;10.896;2023-08-08T13:26:38;1.40;;;1.10;;
1935;SDS011;969;49.892;10.896;2023-08-08T13:29:04;1.30;;;1.20;;
1935;SDS011;969;49.892;10.896;2023-08-08T13:31:30;1.90;;;1.10;;
1935;SDS011;969;49.892;10.896;2023-08-08T13:33:55;1.40;;;1.10;;
1935;SDS011;969;49.892;10.896;2023-08-08T13:36:21;1.97;;;1.30;;
1935;SDS011;969;49.892;10.896;2023-08-08T13:38:46;1.77;;;1.23;;
1935;SDS011;969;49.892;10.896;2023-08-08T13:41:12;2.07;;;1.40;;
1935;SDS011;969;49.892;10.896;2023-08-08T13:43:38;1.60;;;1.43;;
1935;SDS011;969;49.892;10.896;2023-08-08T13:46:04;1.83;;;1.27;;
1935;SDS011;969;49.892;10.896;2023-08-08T13:48:33;1.30;;;1.20;;
1935;SDS011;969;49.892;10.896;2023-08-08T13:50:59;1.40;;;1.30;;
1935;SDS011;969;49.892;10.896;2023-08-08T13:53:25;3.80;;;1.23;;
1935;SDS011;969;49.892;10.896;2023-08-08T13:55:50;1.10;;;1.00;;
1935;SDS011;969;49.892;10.896;2023-08-08T13:58:16;2.60;;;1.47;;
1935;SDS011;969;49.892;10.896;2023-08-08T14:00:42;2.70;;;1.53;;
1935;SDS011;969;49.892;10.896;2023-08-08T14:03:07;3.50;;;1.50;;
1935;SDS011;969;49.892;10.896;2023-08-08T14:05:33;1.50;;;1.40;;
1935;SDS011;969;49.892;10.896;2023-08-08T14:07:59;3.67;;;1.20;;
1935;SDS011;969;49.892;10.896;2023-08-08T14:10:25;1.33;;;1.10;;
1935;SDS011;969;49.892;10.896;2023-08-08T14:12:50;1.90;;;1.43;;
1935;SDS011;969;49.892;10.896;2023-08-08T14:15:16;1.40;;;1.10;;
1935;SDS011;969;49.892;10.896;2023-08-08T14:17:42;1.93;;;1.10;;
1935;SDS011;969;49.892;10.896;2023-08-08T14:20:08;1.33;;;1.10;;
1935;SDS011;969;49.892;10.896;2023-08-08T14:22:34;5.20;;;1.20;;
1935;SDS011;969;49.892;10.896;2023-08-08T14:25:00;2.43;;;1.27;;
1935;SDS011;969;49.892;10.896;2023-08-08T14:27:26;1.57;;;1.03;;
1935;SDS011;969;49.892;10.896;2023-08-08T14:29:51;2.83;;;1.60;;
1935;SDS011;969;49.892;10.896;2023-08-08T14:32:17;1.53;;;1.07;;
1935;SDS011;969;49.892;10.896;2023-08-08T14:34:42;2.27;;;1.47;;
1935;SDS011;969;49.892;10.896;2023-08-08T14:37:08;1.47;;;1.07;;
1935;SDS011;969;49.892;10.896;2023-08-08T14:39:34;1.80;;;1.30;;
1935;SDS011;969;49.892;10.896;2023-08-08T14:41:59;1.57;;;1.27;;
1935;SDS011;969;49.892;10.896;2023-08-08T14:44:25;1.20;;;1.10;;
1935;SDS011;969;49.892;10.896;2023-08-08T14:46:52;2.10;;;1.40;;
1935;SDS011;969;49.892;10.896;2023-08-08T14:49:17;1.20;;;1.07;;
1935;SDS011;969;49.892;10.896;2023-08-08T14:51:43;1.60;;;1.20;;
1935;SDS011;969;49.892;10.896;2023-08-08T14:54:08;1.90;;;1.57;;
1935;SDS011;969;49.892;10.896;2023-08-08T14:56:34;1.60;;;1.10;;
1935;SDS011;969;49.892;10.896;2023-08-08T14:59:00;2.07;;;1.30;;
1935;SDS011;969;49.892;10.896;2023-08-08T15:01:26;1.30;;;1.00;;
1935;SDS011;969;49.892;10.896;2023-08-08T15:03:51;1.77;;;1.43;;
1935;SDS011;969;49.892;10.896;2023-08-08T15:06:22;1.60;;;1.13;;
1935;SDS011;969;49.892;10.896;2023-08-08T15:08:48;2.53;;;1.30;;
1935;SDS011;969;49.892;10.896;2023-08-08T15:11:15;1.40;;;1.30;;
1935;SDS011;969;49.892;10.896;2023-08-08T15:13:41;1.97;;;1.20;;
1935;SDS011;969;49.892;10.896;2023-08-08T15:16:07;1.70;;;1.23;;